Time;durP1;ratioP1;P1;durP2;ratioP2;P2;SDS_P1;SDS_P2;PMS_P1;PMS_P2;Temp;Humidity;BMP_temperature;BMP_pressure;BME280_temperature;BME280_humidity;BME280_pressure;Samples;Min_cycle;Max_cycle;Signal;HPM_P1;HPM_P2
2021/10/02 00:45:54;;;;;;;1.33;0.90;;;;;;;;;;5085282;28;20058;-81
2021/10/02 00:48:20;;;;;;;2.95;1.13;;;;;;;;;;5064946;28;20094;-80
2021/10/02 00:50:47;;;;;;;2.85;1.10;;;;;;;;;;5072194;28;20036;-81
2021/10/02 00:53:14;;;;;;;2.00;1.00;;;;;;;;;;5063158;28;20048;-81
2021/10/02 00:55:41;;;;;;;1.23;0.80;;;;;;;;;;5071569;28;20028;-81
2021/10/02 00:58:08;;;;;;;1.40;0.90;;;;;;;;;;5066199;28;20079;-81
2021/10/02 01:00:34;;;;;;;2.28;1.10;;;;;;;;;;5084879;28;20129;-81
2021/10/02 01:03:05;;;;;;;2.15;1.00;;;;;;;;;;5083051;28;20052;-81
2021/10/02 01:05:38;;;;;;;1.35;0.80;;;;;;;;;;5064989;28;20060;-81
2021/10/02 01:08:13;;;;;;;1.83;1.02;;;;;;;;;;5082079;28;20512;-81
2021/10/02 01:10:58;;;;;;;2.78;1.20;;;;;;;;;;5082272;28;20093;-82
2021/10/02 01:13:48;;;;;;;2.55;1.20;;;;;;;;;;5049363;28;20504;-82
2021/10/02 01:16:17;;;;;;;2.22;1.30;;;;;;;;;;5047794;28;20112;-82
2021/10/02 01:18:46;;;;;;;1.73;0.95;;;;;;;;;;5075115;28;20477;-81
2021/10/02 01:21:28;;;;;;;2.10;1.10;;;;;;;;;;5078036;28;20061;-81
2021/10/02 01:24:10;;;;;;;2.53;1.10;;;;;;;;;;5043977;28;20029;-81
2021/10/02 01:26:54;;;;;;;2.10;0.88;;;;;;;;;;5052510;28;20032;-81
2021/10/02 01:29:21;;;;;;;2.33;1.00;;;;;;;;;;5064394;28;20063;-81
2021/10/02 01:32:06;;;;;;;1.38;0.88;;;;;;;;;;5074071;28;20185;-81
2021/10/02 01:34:40;;;;;;;2.92;1.15;;;;;;;;;;5066604;28;20032;-80
2021/10/02 01:37:36;;;;;;;2.30;1.13;;;;;;;;;;5060245;28;20106;-80
2021/10/02 01:48:20;;;;;;;2.05;0.85;;;;;;;;;;5077462;28;20082;-81
2021/10/02 01:50:50;;;;;;;1.98;1.00;;;;;;;;;;5068975;28;20052;-81
2021/10/02 01:53:17;;;;;;;2.15;1.10;;;;;;;;;;5063573;28;20047;-78
2021/10/02 01:55:44;;;;;;;2.70;1.10;;;;;;;;;;5049722;28;20102;-81
2021/10/02 01:58:13;;;;;;;2.20;1.00;;;;;;;;;;5068166;28;20044;-81
2021/10/02 02:00:44;;;;;;;2.17;1.10;;;;;;;;;;5086802;28;20067;-82
2021/10/02 02:03:14;;;;;;;4.75;1.30;;;;;;;;;;5069712;28;20114;-82
2021/10/02 02:05:41;;;;;;;3.42;1.83;;;;;;;;;;5086924;28;20036;-82
2021/10/02 02:08:12;;;;;;;2.38;1.10;;;;;;;;;;5071024;28;20067;-81
2021/10/02 02:10:38;;;;;;;;;;;;;;;;;;5088417;28;20036;-81
2021/10/02 02:13:05;;;;;;;1.65;1.10;;;;;;;;;;5064924;28;19951;-81
2021/10/02 02:15:32;;;;;;;2.63;1.20;;;;;;;;;;5043577;28;20052;-82
2021/10/02 02:18:08;;;;;;;2.85;1.10;;;;;;;;;;5076022;28;20422;-81
2021/10/02 02:20:37;;;;;;;2.25;1.10;;;;;;;;;;5060715;28;20032;-82
2021/10/02 02:23:04;;;;;;;1.98;1.10;;;;;;;;;;5063149;28;20126;-81
2021/10/02 02:25:31;;;;;;;2.80;1.30;;;;;;;;;;5080825;28;20500;-82
2021/10/02 02:27:58;;;;;;;1.52;0.90;;;;;;;;;;5060274;28;20047;-81
2021/10/02 02:30:25;;;;;;;2.13;1.10;;;;;;;;;;5080976;28;20060;-81
2021/10/02 02:32:51;;;;;;;3.13;0.95;;;;;;;;;;5085709;28;20029;-81
2021/10/02 02:35:21;;;;;;;1.75;1.10;;;;;;;;;;5086256;28;20104;-81
2021/10/02 02:37:47;;;;;;;3.20;1.40;;;;;;;;;;5066006;28;20058;-82
2021/10/02 02:40:14;;;;;;;2.58;1.10;;;;;;;;;;5087109;28;20051;-81
2021/10/02 02:42:41;;;;;;;1.85;1.33;;;;;;;;;;5065361;28;20036;-82
2021/10/02 02:45:08;;;;;;;1.27;0.95;;;;;;;;;;5070653;28;20048;-82
2021/10/02 02:47:37;;;;;;;2.58;1.25;;;;;;;;;;5069795;28;20039;-82
2021/10/02 02:50:07;;;;;;;1.80;1.20;;;;;;;;;;5068395;28;20146;-81
2021/10/02 02:52:39;;;;;;;2.05;1.08;;;;;;;;;;5068023;28;20040;-82
2021/10/02 02:55:07;;;;;;;2.92;1.13;;;;;;;;;;5062089;28;20581;-81
2021/10/02 02:57:44;;;;;;;2.05;1.08;;;;;;;;;;5061034;28;20507;-81
2021/10/02 03:00:15;;;;;;;2.25;1.20;;;;;;;;;;5098340;28;20128;-81
2021/10/02 03:02:50;;;;;;;1.67;0.97;;;;;;;;;;5083748;28;20058;-81
2021/10/02 03:05:17;;;;;;;2.10;1.10;;;;;;;;;;5085367;28;20475;-81
2021/10/02 03:07:55;;;;;;;1.65;1.10;;;;;;;;;;5085589;28;20028;-81
2021/10/02 03:10:22;;;;;;;1.80;1.08;;;;;;;;;;5077583;28;20056;-81
2021/10/02 03:12:48;;;;;;;2.30;1.08;;;;;;;;;;5080394;28;20055;-82
2021/10/02 03:15:16;;;;;;;3.10;1.13;;;;;;;;;;5064584;28;20104;-82
2021/10/02 03:17:44;;;;;;;1.45;1.00;;;;;;;;;;5066451;28;20031;-82
2021/10/02 03:20:12;;;;;;;1.98;1.00;;;;;;;;;;5065827;28;20060;-82
2021/10/02 03:22:39;;;;;;;1.42;0.82;;;;;;;;;;5078341;28;20060;-82
2021/10/02 03:25:05;;;;;;;1.20;0.93;;;;;;;;;;5052968;28;20040;-81
2021/10/02 03:27:32;;;;;;;1.80;1.10;;;;;;;;;;5064812;28;20093;-81
2021/10/02 03:29:59;;;;;;;2.05;1.08;;;;;;;;;;5066240;28;20060;-80
2021/10/02 03:32:26;;;;;;;2.40;1.20;;;;;;;;;;5067811;28;20024;-81
2021/10/02 03:34:53;;;;;;;5.30;1.35;;;;;;;;;;5087198;28;20033;-82
2021/10/02 03:37:20;;;;;;;2.72;1.20;;;;;;;;;;5066448;28;20082;-82
2021/10/02 03:39:46;;;;;;;2.10;1.13;;;;;;;;;;5063927;28;20498;-82
2021/10/02 03:42:14;;;;;;;2.05;1.27;;;;;;;;;;5061905;28;20109;-82
2021/10/02 03:44:42;;;;;;;1.83;0.90;;;;;;;;;;5103104;28;20583;-82
2021/10/02 03:47:10;;;;;;;2.28;1.30;;;;;;;;;;5086133;28;20063;-81
2021/10/02 03:49:36;;;;;;;2.00;1.08;;;;;;;;;;5081704;28;20521;-81
2021/10/02 03:52:03;;;;;;;2.67;1.08;;;;;;;;;;5063171;28;20329;-81
2021/10/02 03:54:30;;;;;;;1.95;1.17;;;;;;;;;;5078989;28;20052;-81
2021/10/02 03:56:56;;;;;;;2.17;1.00;;;;;;;;;;5084214;28;20067;-82
2021/10/02 03:59:22;;;;;;;2.47;1.20;;;;;;;;;;5055774;28;20060;-81
2021/10/02 04:01:49;;;;;;;2.13;1.17;;;;;;;;;;5048883;28;20505;-81
2021/10/02 04:04:15;;;;;;;2.45;1.13;;;;;;;;;;5082371;28;20060;-81
2021/10/02 04:06:42;;;;;;;2.28;1.02;;;;;;;;;;5069949;28;20056;-81
2021/10/02 04:09:08;;;;;;;2.20;1.33;;;;;;;;;;5065090;28;20072;-81
2021/10/02 04:11:35;;;;;;;2.13;1.15;;;;;;;;;;5078817;28;20456;-81
2021/10/02 04:14:04;;;;;;;1.90;1.15;;;;;;;;;;5046839;28;20068;-81
2021/10/02 04:16:31;;;;;;;2.03;1.10;;;;;;;;;;5052804;28;20028;-82
2021/10/02 04:18:58;;;;;;;2.95;1.10;;;;;;;;;;5058303;28;20059;-80
2021/10/02 04:21:24;;;;;;;2.13;1.38;;;;;;;;;;5045001;28;20060;-81
2021/10/02 04:23:51;;;;;;;1.73;1.20;;;;;;;;;;5059037;28;20508;-81
2021/10/02 04:26:18;;;;;;;2.33;1.25;;;;;;;;;;5082255;28;21532;-81
2021/10/02 04:28:45;;;;;;;2.30;1.25;;;;;;;;;;5067297;28;20071;-81
2021/10/02 04:31:14;;;;;;;1.85;1.30;;;;;;;;;;5057858;28;20060;-80
2021/10/02 04:33:40;;;;;;;2.30;1.30;;;;;;;;;;5076942;28;20060;-81
2021/10/02 04:36:06;;;;;;;1.90;1.40;;;;;;;;;;5068888;28;20063;-81
2021/10/02 04:38:33;;;;;;;2.53;1.30;;;;;;;;;;5065582;28;20101;-82
2021/10/02 04:40:59;;;;;;;2.25;1.20;;;;;;;;;;5064764;28;20052;-81
2021/10/02 04:43:26;;;;;;;1.50;1.00;;;;;;;;;;5063878;28;20064;-82
2021/10/02 04:45:52;;;;;;;2.30;1.00;;;;;;;;;;5067087;28;20074;-82
2021/10/02 04:48:19;;;;;;;1.90;1.00;;;;;;;;;;5084158;28;20435;-83
2021/10/02 04:50:45;;;;;;;2.13;1.30;;;;;;;;;;5063795;28;20060;-82
2021/10/02 04:53:11;;;;;;;1.63;1.08;;;;;;;;;;5064208;28;20052;-82
2021/10/02 04:55:39;;;;;;;2.97;1.40;;;;;;;;;;5071293;28;20048;-82
2021/10/02 04:58:06;;;;;;;3.25;1.50;;;;;;;;;;5057203;28;20041;-82
2021/10/02 05:00:32;;;;;;;2.15;1.20;;;;;;;;;;5080564;28;20082;-82
2021/10/02 05:03:01;;;;;;;2.40;1.20;;;;;;;;;;5081778;28;20056;-81
2021/10/02 05:05:28;;;;;;;1.98;1.40;;;;;;;;;;5063128;28;20052;-82
2021/10/02 05:07:54;;;;;;;1.95;1.20;;;;;;;;;;5062232;28;20028;-81
2021/10/02 05:10:21;;;;;;;2.90;1.30;;;;;;;;;;5064046;28;20512;-81
2021/10/02 05:12:47;;;;;;;2.78;1.33;;;;;;;;;;5062495;28;20059;-81
2021/10/02 05:15:14;;;;;;;2.53;1.20;;;;;;;;;;5063652;28;20063;-81
2021/10/02 05:17:40;;;;;;;1.67;1.13;;;;;;;;;;5083497;28;20127;-81
2021/10/02 05:20:07;;;;;;;2.85;1.10;;;;;;;;;;5056112;28;20068;-81
2021/10/02 05:22:33;;;;;;;1.90;1.20;;;;;;;;;;5059960;28;20107;-81
2021/10/02 05:25:00;;;;;;;2.00;1.20;;;;;;;;;;5086102;28;20528;-81
2021/10/02 05:27:26;;;;;;;2.15;1.23;;;;;;;;;;5049800;28;20607;-82
2021/10/02 05:29:53;;;;;;;4.18;1.88;;;;;;;;;;5060810;28;20067;-81
2021/10/02 05:32:19;;;;;;;2.80;1.50;;;;;;;;;;5053340;28;20052;-82
2021/10/02 05:34:45;;;;;;;2.85;1.20;;;;;;;;;;5075441;28;20068;-82
2021/10/02 05:37:12;;;;;;;3.78;1.50;;;;;;;;;;5063425;28;20037;-82
2021/10/02 05:39:38;;;;;;;2.03;1.30;;;;;;;;;;5072225;28;20075;-82
2021/10/02 05:42:05;;;;;;;2.20;1.30;;;;;;;;;;5077171;28;20036;-82
2021/10/02 05:44:33;;;;;;;2.47;1.10;;;;;;;;;;5070336;28;20514;-82
2021/10/02 05:46:59;;;;;;;2.75;1.55;;;;;;;;;;5070634;28;20055;-81
2021/10/02 05:49:26;;;;;;;2.38;1.40;;;;;;;;;;5071673;28;20492;-81
2021/10/02 05:51:52;;;;;;;1.85;1.30;;;;;;;;;;5105487;28;20042;-82
2021/10/02 05:54:19;;;;;;;2.60;1.30;;;;;;;;;;5045807;28;20041;-81
2021/10/02 05:56:45;;;;;;;2.30;1.48;;;;;;;;;;5070362;28;20033;-82
2021/10/02 05:59:12;;;;;;;3.42;1.48;;;;;;;;;;5083034;28;20091;-81
2021/10/02 06:01:38;;;;;;;2.53;1.27;;;;;;;;;;5077126;28;20055;-81
2021/10/02 06:04:05;;;;;;;2.33;1.50;;;;;;;;;;5082463;28;20063;-83
2021/10/02 06:06:31;;;;;;;2.75;1.38;;;;;;;;;;5084510;28;20142;-82
2021/10/02 06:08:57;;;;;;;3.28;1.40;;;;;;;;;;5075908;28;20155;-82
2021/10/02 06:11:24;;;;;;;2.00;1.30;;;;;;;;;;5049907;28;20136;-82
2021/10/02 06:13:50;;;;;;;1.83;1.38;;;;;;;;;;5067391;28;20656;-83
2021/10/02 06:16:19;;;;;;;2.30;1.30;;;;;;;;;;5050595;28;20519;-83
2021/10/02 06:18:45;;;;;;;3.63;1.58;;;;;;;;;;5050561;28;20072;-82
2021/10/02 06:21:14;;;;;;;3.95;1.40;;;;;;;;;;5052957;28;20094;-78
2021/10/02 06:23:41;;;;;;;2.78;1.20;;;;;;;;;;5068831;28;20032;-81
2021/10/02 06:26:07;;;;;;;1.80;1.35;;;;;;;;;;5049289;28;20110;-80
2021/10/02 06:28:34;;;;;;;1.38;1.08;;;;;;;;;;5078332;28;20083;-79
2021/10/02 06:31:01;;;;;;;2.00;1.10;;;;;;;;;;5082264;28;20066;-79
2021/10/02 06:33:28;;;;;;;1.77;1.10;;;;;;;;;;5065540;28;20496;-80
2021/10/02 06:35:54;;;;;;;2.92;1.30;;;;;;;;;;5073883;28;20071;-80
2021/10/02 06:38:21;;;;;;;3.00;1.15;;;;;;;;;;5071731;28;20063;-80
2021/10/02 06:40:47;;;;;;;2.80;1.40;;;;;;;;;;5052250;28;20048;-80
2021/10/02 06:43:14;;;;;;;2.35;1.50;;;;;;;;;;5061582;28;20068;-81
2021/10/02 06:45:41;;;;;;;2.05;1.02;;;;;;;;;;5057231;28;20028;-79
2021/10/02 06:48:07;;;;;;;2.15;1.10;;;;;;;;;;5051094;28;20060;-79
2021/10/02 06:50:34;;;;;;;2.30;1.20;;;;;;;;;;5087319;28;20066;-80
2021/10/02 06:53:02;;;;;;;2.28;1.30;;;;;;;;;;5067421;28;20036;-80
2021/10/02 06:55:28;;;;;;;1.83;1.05;;;;;;;;;;5065770;28;20064;-79
2021/10/02 06:57:54;;;;;;;2.58;1.40;;;;;;;;;;5069074;28;20082;-79
2021/10/02 07:00:21;;;;;;;2.42;1.45;;;;;;;;;;5063971;28;20060;-78
2021/10/02 07:02:47;;;;;;;2.00;1.20;;;;;;;;;;5048705;28;20471;-79
2021/10/02 07:05:15;;;;;;;5.18;1.52;;;;;;;;;;5065710;28;20068;-79
2021/10/02 07:07:42;;;;;;;2.00;1.20;;;;;;;;;;5067339;28;20040;-80
2021/10/02 07:10:09;;;;;;;2.65;1.52;;;;;;;;;;5075528;28;20141;-79
2021/10/02 07:12:36;;;;;;;2.53;1.35;;;;;;;;;;5080468;28;20063;-80
2021/10/02 07:15:06;;;;;;;1.98;1.30;;;;;;;;;;5075482;28;20072;-79
2021/10/02 07:17:33;;;;;;;2.08;1.27;;;;;;;;;;5046732;28;20068;-79
2021/10/02 07:19:59;;;;;;;1.85;1.15;;;;;;;;;;5081421;28;20056;-79
2021/10/02 07:22:26;;;;;;;2.00;1.40;;;;;;;;;;5047874;28;20057;-79
2021/10/02 07:24:52;;;;;;;2.55;1.50;;;;;;;;;;5066033;28;20138;-81
2021/10/02 07:27:18;;;;;;;3.33;1.27;;;;;;;;;;5046112;28;20067;-81
2021/10/02 07:29:45;;;;;;;1.98;1.23;;;;;;;;;;5061408;28;20504;-80
2021/10/02 07:32:11;;;;;;;2.15;1.20;;;;;;;;;;5066403;28;20485;-80
2021/10/02 07:34:38;;;;;;;2.20;1.25;;;;;;;;;;5086328;28;20104;-81
2021/10/02 07:37:06;;;;;;;2.00;1.20;;;;;;;;;;5066760;28;20060;-80
2021/10/02 07:39:32;;;;;;;2.92;1.20;;;;;;;;;;5056303;28;20097;-80
2021/10/02 07:41:59;;;;;;;1.85;1.30;;;;;;;;;;5067883;28;20100;-80
2021/10/02 07:44:28;;;;;;;2.03;1.20;;;;;;;;;;5053106;28;20106;-80
2021/10/02 07:46:55;;;;;;;2.08;1.23;;;;;;;;;;5070734;28;20101;-79
2021/10/02 07:49:23;;;;;;;2.17;1.17;;;;;;;;;;5079570;28;20047;-80
2021/10/02 07:51:50;;;;;;;1.67;1.13;;;;;;;;;;5081164;28;20041;-79
2021/10/02 07:54:19;;;;;;;2.35;1.30;;;;;;;;;;5082288;28;20460;-79
2021/10/02 07:56:46;;;;;;;2.03;1.38;;;;;;;;;;5074161;28;20032;-79
2021/10/02 07:59:13;;;;;;;2.40;1.60;;;;;;;;;;5063714;28;20048;-81
2021/10/02 08:01:39;;;;;;;2.38;1.48;;;;;;;;;;5079225;28;20117;-79
2021/10/02 08:04:07;;;;;;;2.92;1.30;;;;;;;;;;5056017;28;20474;-80
2021/10/02 08:06:34;;;;;;;2.00;1.30;;;;;;;;;;5086886;28;20063;-79
2021/10/02 08:09:01;;;;;;;1.58;1.10;;;;;;;;;;5073376;28;20105;-80
2021/10/02 08:11:28;;;;;;;2.80;1.38;;;;;;;;;;5066242;28;20063;-77
2021/10/02 08:13:55;;;;;;;4.35;1.65;;;;;;;;;;5076303;28;20056;-78
2021/10/02 08:16:22;;;;;;;5.00;1.88;;;;;;;;;;5082371;28;20033;-79
2021/10/02 08:18:52;;;;;;;3.72;1.73;;;;;;;;;;5071199;28;20552;-81
2021/10/02 08:21:19;;;;;;;3.58;1.45;;;;;;;;;;5063144;28;20117;-83
2021/10/02 08:23:46;;;;;;;2.72;1.20;;;;;;;;;;5033196;28;20074;-79
2021/10/02 08:26:16;;;;;;;4.07;1.60;;;;;;;;;;5064766;28;20208;-78
2021/10/02 08:28:47;;;;;;;3.85;1.30;;;;;;;;;;5075534;28;20036;-78
2021/10/02 08:31:21;;;;;;;2.95;1.40;;;;;;;;;;5069770;28;20067;-77
2021/10/02 08:33:48;;;;;;;2.40;1.38;;;;;;;;;;5061858;28;20059;-78
2021/10/02 08:36:14;;;;;;;3.35;1.42;;;;;;;;;;5062731;28;20122;-78
2021/10/02 08:38:41;;;;;;;2.92;1.70;;;;;;;;;;5081964;28;20596;-77
2021/10/02 08:41:08;;;;;;;2.85;1.30;;;;;;;;;;5083684;28;20106;-78
2021/10/02 08:43:35;;;;;;;2.50;1.42;;;;;;;;;;5063132;28;20053;-77
2021/10/02 08:46:03;;;;;;;4.88;1.30;;;;;;;;;;5059872;28;20312;-77
2021/10/02 08:48:29;;;;;;;3.22;1.45;;;;;;;;;;5074001;28;20037;-85
2021/10/02 08:50:58;;;;;;;1.83;1.30;;;;;;;;;;5078992;28;20110;-82
2021/10/02 08:53:29;;;;;;;3.28;1.25;;;;;;;;;;5081455;28;20779;-78
2021/10/02 08:55:56;;;;;;;7.38;1.60;;;;;;;;;;5075925;28;20064;-80
2021/10/02 08:58:28;;;;;;;5.05;2.08;;;;;;;;;;5065437;28;20056;-78
2021/10/02 09:00:55;;;;;;;6.70;1.70;;;;;;;;;;5079307;28;20033;-79
2021/10/02 09:03:45;;;;;;;10.38;2.88;;;;;;;;;;5075593;28;20032;-82
2021/10/02 09:06:12;;;;;;;5.80;1.73;;;;;;;;;;5059426;28;20040;-81
2021/10/02 09:08:38;;;;;;;3.38;1.40;;;;;;;;;;5085027;28;20021;-78
2021/10/02 09:11:05;;;;;;;10.63;1.58;;;;;;;;;;5082472;28;20067;-80
2021/10/02 09:13:31;;;;;;;8.98;1.52;;;;;;;;;;5055112;28;20052;-78
2021/10/02 09:16:03;;;;;;;4.43;1.75;;;;;;;;;;5034962;28;20083;-79
2021/10/02 09:18:30;;;;;;;6.68;1.70;;;;;;;;;;5076854;28;20298;-80
2021/10/02 09:21:04;;;;;;;5.82;1.50;;;;;;;;;;5070387;28;20313;-79
2021/10/02 09:23:32;;;;;;;5.90;1.50;;;;;;;;;;5096514;28;20028;-80
2021/10/02 09:25:59;;;;;;;4.53;1.48;;;;;;;;;;5065676;28;20066;-80
2021/10/02 09:28:36;;;;;;;7.78;1.88;;;;;;;;;;5061584;28;20187;-81
2021/10/02 09:31:04;;;;;;;4.90;1.63;;;;;;;;;;5081114;28;21046;-80
2021/10/02 09:33:31;;;;;;;4.78;1.80;;;;;;;;;;5083780;28;21296;-80
2021/10/02 09:35:57;;;;;;;5.32;1.35;;;;;;;;;;5073998;28;20090;-80
2021/10/02 09:38:23;;;;;;;4.75;1.50;;;;;;;;;;5058302;28;20040;-79
2021/10/02 09:40:54;;;;;;;6.95;1.50;;;;;;;;;;5066740;28;22653;-80
2021/10/02 09:43:21;;;;;;;3.60;1.50;;;;;;;;;;5074918;28;20589;-80
2021/10/02 09:45:48;;;;;;;4.13;1.48;;;;;;;;;;5079342;28;20040;-80
2021/10/02 09:48:16;;;;;;;2.63;1.35;;;;;;;;;;5071201;28;20032;-80
2021/10/02 09:50:44;;;;;;;3.00;1.50;;;;;;;;;;5060620;28;20306;-80
2021/10/02 09:53:14;;;;;;;3.75;1.20;;;;;;;;;;5056120;28;20508;-81
2021/10/02 09:55:42;;;;;;;4.90;1.35;;;;;;;;;;5064902;28;20070;-79
2021/10/02 09:58:10;;;;;;;6.05;1.20;;;;;;;;;;5065257;28;20051;-80
2021/10/02 10:00:36;;;;;;;2.58;1.30;;;;;;;;;;5063220;28;20081;-80
2021/10/02 10:03:10;;;;;;;2.05;1.10;;;;;;;;;;5081678;28;20064;-78
2021/10/02 10:05:41;;;;;;;2.45;1.45;;;;;;;;;;5081021;28;20060;-80
2021/10/02 10:08:11;;;;;;;3.90;1.02;;;;;;;;;;5084685;28;20063;-79
2021/10/02 10:10:40;;;;;;;4.40;1.25;;;;;;;;;;5067246;28;20035;-80
2021/10/02 10:13:13;;;;;;;3.58;1.38;;;;;;;;;;5065439;28;20060;-80
2021/10/02 10:15:41;;;;;;;2.22;1.10;;;;;;;;;;5083588;28;20059;-80
2021/10/02 10:18:09;;;;;;;3.70;1.38;;;;;;;;;;5086002;28;20032;-80
2021/10/02 10:20:36;;;;;;;4.68;1.75;;;;;;;;;;5069879;28;20138;-82
2021/10/02 10:23:03;;;;;;;3.58;1.38;;;;;;;;;;5068524;28;20060;-78
2021/10/02 10:25:30;;;;;;;2.88;1.23;;;;;;;;;;5062046;28;20052;-80
2021/10/02 10:27:58;;;;;;;2.67;1.30;;;;;;;;;;5063677;28;20087;-80
2021/10/02 10:30:26;;;;;;;3.25;1.20;;;;;;;;;;5056129;28;20064;-81
2021/10/02 10:32:57;;;;;;;2.65;1.42;;;;;;;;;;5064833;28;20052;-80
2021/10/02 10:35:24;;;;;;;2.58;1.40;;;;;;;;;;5062725;28;20053;-81
2021/10/02 10:37:50;;;;;;;3.58;1.40;;;;;;;;;;5062895;28;20078;-80
2021/10/02 10:40:17;;;;;;;5.88;1.60;;;;;;;;;;5049593;28;20126;-80
2021/10/02 10:42:44;;;;;;;2.53;1.10;;;;;;;;;;5084886;28;20055;-80
2021/10/02 10:45:10;;;;;;;2.65;1.20;;;;;;;;;;5067262;28;20082;-80
2021/10/02 10:47:37;;;;;;;3.97;1.48;;;;;;;;;;5086753;28;20060;-80
2021/10/02 10:50:04;;;;;;;4.03;1.20;;;;;;;;;;5067678;27;20040;-80
2021/10/02 10:52:39;;;;;;;2.63;1.08;;;;;;;;;;5075918;28;20052;-80
2021/10/02 10:55:11;;;;;;;2.63;1.20;;;;;;;;;;5080873;28;20613;-78
2021/10/02 10:57:42;;;;;;;2.17;1.20;;;;;;;;;;5080196;28;20515;-78
2021/10/02 11:00:14;;;;;;;2.65;1.23;;;;;;;;;;5082383;28;20228;-79
2021/10/02 11:02:46;;;;;;;2.90;0.90;;;;;;;;;;5078321;28;20089;-82
2021/10/02 11:05:31;;;;;;;6.20;1.17;;;;;;;;;;5082109;28;20115;-78
2021/10/02 11:07:57;;;;;;;3.90;1.58;;;;;;;;;;5082021;28;20063;-79
2021/10/02 11:10:44;;;;;;;3.78;1.10;;;;;;;;;;5058882;28;20068;-78
2021/10/02 11:13:11;;;;;;;6.60;1.70;;;;;;;;;;5061700;28;20079;-82
2021/10/02 11:15:37;;;;;;;3.17;1.70;;;;;;;;;;5054301;28;20109;-83
2021/10/02 11:18:04;;;;;;;4.13;1.27;;;;;;;;;;5036150;28;20037;-82
2021/10/02 11:20:37;;;;;;;4.70;1.30;;;;;;;;;;5050898;28;20032;-84
2021/10/02 11:23:40;;;;;;;4.15;1.33;;;;;;;;;;5084346;28;20052;-86
2021/10/02 11:26:24;;;;;;;3.63;1.38;;;;;;;;;;5068790;28;20082;-79
2021/10/02 11:29:10;;;;;;;3.78;1.30;;;;;;;;;;5077415;28;20090;-80
2021/10/02 11:31:36;;;;;;;3.72;1.10;;;;;;;;;;5075676;28;20946;-80
2021/10/02 11:34:03;;;;;;;2.22;1.00;;;;;;;;;;5081020;28;20059;-81
2021/10/02 11:36:32;;;;;;;5.05;1.52;;;;;;;;;;5058464;28;20093;-80
2021/10/02 11:39:22;;;;;;;3.47;1.33;;;;;;;;;;5070203;28;20058;-80
2021/10/02 11:42:07;;;;;;;3.33;1.15;;;;;;;;;;5053438;28;20934;-81
2021/10/02 11:44:33;;;;;;;4.25;1.40;;;;;;;;;;5045427;28;20657;-81
2021/10/02 11:47:19;;;;;;;2.40;1.30;;;;;;;;;;5062979;28;20117;-82
2021/10/02 11:49:45;;;;;;;3.58;0.98;;;;;;;;;;5070482;28;20119;-81
2021/10/02 11:52:13;;;;;;;3.17;1.17;;;;;;;;;;5046239;28;20032;-81
2021/10/02 11:54:41;;;;;;;3.05;1.20;;;;;;;;;;5056413;28;20082;-81
2021/10/02 11:57:11;;;;;;;4.07;1.00;;;;;;;;;;5078412;28;20546;-81
2021/10/02 11:59:46;;;;;;;2.97;1.10;;;;;;;;;;5081458;28;20101;-81
2021/10/02 12:02:14;;;;;;;3.60;1.10;;;;;;;;;;5081546;28;20096;-81
2021/10/02 12:04:40;;;;;;;2.22;1.10;;;;;;;;;;5080449;28;20153;-80
2021/10/02 12:07:08;;;;;;;2.80;1.30;;;;;;;;;;5062922;28;20556;-80
2021/10/02 12:09:34;;;;;;;2.95;1.05;;;;;;;;;;5078475;28;20047;-79
2021/10/02 12:12:01;;;;;;;2.47;1.20;;;;;;;;;;5081613;28;20067;-80
2021/10/02 12:14:28;;;;;;;3.35;1.05;;;;;;;;;;5086545;28;20500;-73
2021/10/02 12:16:58;;;;;;;5.65;1.05;;;;;;;;;;5081764;28;20032;-79
2021/10/02 12:19:24;;;;;;;4.97;1.38;;;;;;;;;;5080862;28;20105;-77
2021/10/02 12:22:09;;;;;;;3.88;1.02;;;;;;;;;;5082015;28;20060;-79
2021/10/02 12:24:37;;;;;;;3.90;1.63;;;;;;;;;;5048110;28;20484;-78
2021/10/02 12:27:04;;;;;;;3.55;1.35;;;;;;;;;;5066047;28;20625;-78
2021/10/02 12:29:33;;;;;;;5.90;1.70;;;;;;;;;;5048500;28;20762;-77
2021/10/02 12:32:01;;;;;;;6.50;1.60;;;;;;;;;;5072815;28;20088;-78
2021/10/02 12:34:38;;;;;;;5.32;1.40;;;;;;;;;;5045175;28;20056;-82
2021/10/02 12:37:07;;;;;;;5.70;1.55;;;;;;;;;;5046957;28;20032;-79
2021/10/02 12:39:35;;;;;;;3.88;1.60;;;;;;;;;;5059890;28;20064;-79
2021/10/02 12:42:02;;;;;;;9.05;1.80;;;;;;;;;;5046786;28;20041;-79
2021/10/02 12:44:32;;;;;;;5.30;1.77;;;;;;;;;;5059020;28;20064;-79
2021/10/02 12:47:00;;;;;;;6.40;2.23;;;;;;;;;;5063407;28;20028;-78
2021/10/02 12:49:27;;;;;;;7.57;2.58;;;;;;;;;;5055507;28;20028;-77
2021/10/02 12:51:54;;;;;;;6.15;2.55;;;;;;;;;;5078549;28;20535;-77
2021/10/02 12:54:22;;;;;;;4.93;2.55;;;;;;;;;;5068830;28;20067;-78
2021/10/02 12:57:02;;;;;;;5.82;2.38;;;;;;;;;;5045653;28;20119;-78
2021/10/02 12:59:36;;;;;;;6.05;2.70;;;;;;;;;;5072374;28;22136;-78
2021/10/02 13:02:03;;;;;;;5.88;2.20;;;;;;;;;;5082523;28;20135;-79
2021/10/02 13:04:31;;;;;;;3.40;2.33;;;;;;;;;;5083154;28;20028;-78
2021/10/02 13:06:57;;;;;;;5.40;2.45;;;;;;;;;;5082385;28;20056;-79
2021/10/02 13:09:24;;;;;;;8.85;2.72;;;;;;;;;;5061724;28;20381;-79
2021/10/02 13:11:50;;;;;;;5.47;2.42;;;;;;;;;;5056539;28;20040;-79
2021/10/02 13:14:36;;;;;;;5.28;2.22;;;;;;;;;;5057763;28;20094;-79
2021/10/02 13:17:03;;;;;;;7.35;2.03;;;;;;;;;;5073748;28;20040;-79
2021/10/02 13:19:31;;;;;;;5.60;2.20;;;;;;;;;;5063257;28;20055;-79
2021/10/02 13:22:36;;;;;;;4.50;2.38;;;;;;;;;;5071820;28;20077;-81
2021/10/02 13:25:06;;;;;;;5.60;2.08;;;;;;;;;;5062650;28;20072;-78
2021/10/02 13:27:41;;;;;;;3.97;2.20;;;;;;;;;;5064675;28;20060;-78
2021/10/02 13:30:13;;;;;;;3.28;2.13;;;;;;;;;;5047779;28;20059;-78
2021/10/02 13:32:39;;;;;;;5.03;2.00;;;;;;;;;;5064415;28;20120;-77
2021/10/02 13:35:08;;;;;;;3.05;1.70;;;;;;;;;;5062401;28;20748;-79
2021/10/02 13:37:35;;;;;;;3.33;2.00;;;;;;;;;;5081687;28;20086;-77
2021/10/02 13:40:04;;;;;;;3.75;1.90;;;;;;;;;;5075458;28;20075;-79
2021/10/02 13:42:31;;;;;;;3.00;2.17;;;;;;;;;;5064849;28;20549;-78
2021/10/02 13:44:58;;;;;;;4.07;2.15;;;;;;;;;;5067186;28;20105;-78
2021/10/02 13:47:25;;;;;;;4.50;2.55;;;;;;;;;;5045350;28;20072;-78
2021/10/02 13:49:53;;;;;;;4.25;2.30;;;;;;;;;;5064581;28;20068;-78
2021/10/02 13:52:20;;;;;;;4.75;2.60;;;;;;;;;;5074730;28;20106;-78
2021/10/02 13:54:46;;;;;;;5.65;2.00;;;;;;;;;;5072135;28;20056;-78
2021/10/02 13:57:13;;;;;;;4.80;2.42;;;;;;;;;;5058248;28;20040;-78
2021/10/02 13:59:39;;;;;;;3.85;1.80;;;;;;;;;;5086283;28;20543;-77
2021/10/02 14:02:06;;;;;;;5.05;2.08;;;;;;;;;;5075769;28;20067;-77
2021/10/02 14:04:34;;;;;;;2.75;1.80;;;;;;;;;;5052508;28;20077;-78
2021/10/02 14:07:07;;;;;;;6.22;2.22;;;;;;;;;;5059791;28;20156;-78
2021/10/02 14:09:34;;;;;;;2.97;2.00;;;;;;;;;;5065375;28;20060;-78
2021/10/02 14:12:01;;;;;;;5.93;2.03;;;;;;;;;;5060952;28;20104;-81
2021/10/02 14:14:28;;;;;;;3.47;1.80;;;;;;;;;;5083406;28;20056;-78
2021/10/02 14:16:55;;;;;;;3.75;2.10;;;;;;;;;;5084409;28;20089;-79
2021/10/02 14:19:22;;;;;;;2.47;1.85;;;;;;;;;;5086680;28;20170;-79
2021/10/02 14:21:48;;;;;;;3.20;1.90;;;;;;;;;;5088288;28;20055;-78
2021/10/02 14:24:15;;;;;;;3.35;1.80;;;;;;;;;;5064885;28;20868;-79
2021/10/02 14:26:41;;;;;;;4.38;2.10;;;;;;;;;;5062122;28;20070;-79
2021/10/02 14:29:07;;;;;;;2.85;1.98;;;;;;;;;;5085241;28;20060;-79
2021/10/02 14:31:34;;;;;;;4.93;2.03;;;;;;;;;;5083580;28;20068;-79
2021/10/02 14:34:02;;;;;;;3.33;2.00;;;;;;;;;;5062762;28;20056;-77
2021/10/02 14:36:29;;;;;;;4.40;1.67;;;;;;;;;;5082271;28;20583;-78
2021/10/02 14:38:56;;;;;;;4.28;1.73;;;;;;;;;;5064367;28;20090;-77
2021/10/02 14:41:22;;;;;;;3.08;2.03;;;;;;;;;;5064215;28;20056;-77
2021/10/02 14:43:48;;;;;;;3.78;1.98;;;;;;;;;;5078375;28;20056;-78
2021/10/02 14:46:15;;;;;;;3.88;1.90;;;;;;;;;;5065257;28;20060;-78
2021/10/02 14:48:41;;;;;;;4.38;1.98;;;;;;;;;;5065112;28;20056;-79
2021/10/02 14:51:08;;;;;;;4.80;2.25;;;;;;;;;;5063959;28;20060;-80
2021/10/02 14:53:35;;;;;;;3.22;2.05;;;;;;;;;;5066909;28;20059;-79
2021/10/02 14:56:01;;;;;;;4.00;1.67;;;;;;;;;;5059979;28;20411;-81
2021/10/02 14:58:29;;;;;;;2.20;1.67;;;;;;;;;;5080272;28;20063;-80
2021/10/02 15:00:56;;;;;;;3.80;2.05;;;;;;;;;;5067705;28;20060;-80
2021/10/02 15:03:23;;;;;;;2.88;2.00;;;;;;;;;;5063753;28;20052;-80
2021/10/02 15:05:52;;;;;;;3.10;2.13;;;;;;;;;;5065839;28;20155;-80
2021/10/02 15:08:18;;;;;;;2.70;2.00;;;;;;;;;;5083267;28;20029;-78
2021/10/02 15:10:45;;;;;;;5.88;1.92;;;;;;;;;;5080519;28;20070;-77
2021/10/02 15:13:11;;;;;;;2.78;1.70;;;;;;;;;;5065549;28;20086;-78
2021/10/02 15:15:38;;;;;;;2.30;1.42;;;;;;;;;;5086458;28;20097;-78
2021/10/02 15:18:05;;;;;;;4.13;2.00;;;;;;;;;;5083439;28;20492;-79
2021/10/02 15:20:31;;;;;;;2.22;1.92;;;;;;;;;;5071785;28;20048;-81
2021/10/02 15:23:02;;;;;;;3.03;1.92;;;;;;;;;;5074102;28;20119;-80
2021/10/02 15:25:29;;;;;;;2.78;1.88;;;;;;;;;;5052869;28;20318;-79
2021/10/02 15:28:03;;;;;;;3.20;1.67;;;;;;;;;;5052401;28;20060;-78
2021/10/02 15:30:30;;;;;;;3.10;1.80;;;;;;;;;;5066107;28;20065;-79
2021/10/02 15:32:57;;;;;;;2.75;1.95;;;;;;;;;;5054816;28;20056;-81
2021/10/02 15:35:29;;;;;;;3.70;1.90;;;;;;;;;;5065972;28;20496;-78
2021/10/02 15:37:56;;;;;;;3.17;1.85;;;;;;;;;;5071814;28;20059;-78
2021/10/02 15:40:22;;;;;;;2.45;1.70;;;;;;;;;;5036550;28;20060;-78
2021/10/02 15:42:50;;;;;;;2.40;1.70;;;;;;;;;;5073328;28;20075;-78
2021/10/02 15:45:18;;;;;;;3.20;1.70;;;;;;;;;;5081221;28;20067;-78